createdAt,value
2019-01-26T00:01:04.726Z,100.00
2019-01-26T00:03:36.282Z,100.00
2019-01-26T00:06:08.110Z,100.00
2019-01-26T00:08:39.430Z,100.00
2019-01-26T00:11:10.953Z,100.00
2019-01-26T00:13:42.354Z,100.00
2019-01-26T00:16:13.717Z,100.00
2019-01-26T00:18:45.135Z,100.00
2019-01-26T00:21:16.556Z,100.00
2019-01-26T00:23:47.870Z,100.00
2019-01-26T00:26:19.179Z,100.00
2019-01-26T00:28:50.393Z,100.00
2019-01-26T00:31:21.760Z,100.00
2019-01-26T00:33:53.305Z,100.00
2019-01-26T00:36:24.569Z,100.00
2019-01-26T00:38:55.864Z,100.00
2019-01-26T00:41:27.109Z,100.00
2019-01-26T00:43:58.386Z,100.00
2019-01-26T00:46:29.636Z,100.00
2019-01-26T00:49:00.887Z,100.00
2019-01-26T00:51:32.174Z,100.00
2019-01-26T00:54:03.463Z,100.00
2019-01-26T00:56:34.830Z,100.00
2019-01-26T00:59:06.548Z,100.00
2019-01-26T01:01:37.833Z,100.00
2019-01-26T01:04:09.212Z,100.00
2019-01-26T01:06:40.628Z,100.00
2019-01-26T01:09:16.977Z,100.00
2019-01-26T01:11:57.590Z,100.00
2019-01-26T01:14:38.882Z,100.00
2019-01-26T01:17:24.338Z,100.00
2019-01-26T01:20:01.087Z,100.00
2019-01-26T01:22:33.501Z,100.00
2019-01-26T01:25:05.750Z,100.00
2019-01-26T01:27:37.110Z,100.00
2019-01-26T01:30:11.445Z,100.00
2019-01-26T01:32:42.786Z,100.00
2019-01-26T01:35:14.286Z,100.00
2019-01-26T01:37:45.593Z,100.00
2019-01-26T01:40:17.502Z,100.00
2019-01-26T01:42:48.834Z,100.00
2019-01-26T01:45:21.205Z,100.00
2019-01-26T01:47:52.629Z,100.00
2019-01-26T01:50:23.988Z,100.00
2019-01-26T01:52:55.289Z,100.00
2019-01-26T01:55:26.597Z,100.00
2019-01-26T01:57:57.887Z,100.00
2019-01-26T02:00:29.643Z,100.00
2019-01-26T02:03:01.046Z,100.00
2019-01-26T02:05:32.438Z,100.00
2019-01-26T02:08:03.790Z,100.00
2019-01-26T02:10:35.343Z,100.00
2019-01-26T02:13:06.957Z,100.00
2019-01-26T02:15:41.606Z,100.00
2019-01-26T02:18:12.894Z,100.00
2019-01-26T02:20:44.175Z,100.00
2019-01-26T02:23:15.510Z,100.00
2019-01-26T02:25:46.719Z,100.00
2019-01-26T02:28:18.038Z,100.00
2019-01-26T02:30:49.504Z,100.00
2019-01-26T02:33:20.902Z,100.00
2019-01-26T02:35:52.125Z,100.00
2019-01-26T02:38:25.442Z,100.00
2019-01-26T02:40:56.838Z,100.00
2019-01-26T02:43:28.192Z,100.00
2019-01-26T02:45:59.687Z,100.00
2019-01-26T02:48:31.072Z,100.00
2019-01-26T02:51:02.363Z,100.00
2019-01-26T02:53:33.711Z,100.00
2019-01-26T02:56:04.997Z,100.00
2019-01-26T02:58:36.308Z,100.00
2019-01-26T03:01:07.824Z,100.00
2019-01-26T03:03:40.783Z,100.00
2019-01-26T03:06:12.261Z,100.00
2019-01-26T03:08:43.535Z,100.00
2019-01-26T03:11:14.899Z,100.00
2019-01-26T03:13:46.245Z,100.00
2019-01-26T03:16:17.589Z,100.00
2019-01-26T03:18:48.866Z,100.00
2019-01-26T03:21:20.226Z,100.00
2019-01-26T03:23:51.683Z,100.00
2019-01-26T03:26:23.278Z,100.00
2019-01-26T03:28:54.554Z,100.00
2019-01-26T03:31:25.850Z,100.00
2019-01-26T03:33:57.298Z,100.00
2019-01-26T03:36:28.744Z,100.00
2019-01-26T03:39:00.111Z,100.00
2019-01-26T03:41:31.659Z,100.00
2019-01-26T03:44:03.058Z,100.00
2019-01-26T03:46:34.358Z,100.00
2019-01-26T03:49:05.803Z,100.00
2019-01-26T03:51:37.117Z,100.00
2019-01-26T03:54:08.503Z,100.00
2019-01-26T03:56:39.807Z,100.00
2019-01-26T03:59:11.188Z,100.00
2019-01-26T04:01:43.653Z,100.00
2019-01-26T04:04:15.029Z,100.00
2019-01-26T04:06:46.394Z,100.00
2019-01-26T04:09:17.706Z,100.00
2019-01-26T04:11:48.935Z,100.00
2019-01-26T04:14:20.402Z,100.00
2019-01-26T04:16:51.740Z,100.00
2019-01-26T04:19:23.087Z,100.00
2019-01-26T04:21:54.459Z,100.00
2019-01-26T04:24:25.734Z,100.00
2019-01-26T04:26:57.009Z,100.00
2019-01-26T04:29:28.277Z,100.00
2019-01-26T04:31:59.513Z,100.00
2019-01-26T04:34:30.813Z,100.00
2019-01-26T04:37:02.013Z,100.00
2019-01-26T04:39:33.321Z,100.00
2019-01-26T04:42:04.646Z,100.00
2019-01-26T04:44:35.907Z,100.00
2019-01-26T04:47:07.164Z,100.00
2019-01-26T04:49:38.485Z,100.00
2019-01-26T04:52:09.882Z,100.00
2019-01-26T04:54:41.106Z,100.00
2019-01-26T04:57:12.351Z,100.00
2019-01-26T04:59:43.571Z,100.00
2019-01-26T05:02:15.010Z,100.00
2019-01-26T05:04:46.380Z,100.00
2019-01-26T05:07:17.779Z,100.00
2019-01-26T05:09:49.087Z,100.00
2019-01-26T05:12:20.391Z,100.00
2019-01-26T05:14:51.795Z,100.00
2019-01-26T05:17:23.064Z,100.00
2019-01-26T05:19:54.277Z,100.00
2019-01-26T05:22:25.586Z,100.00
2019-01-26T05:24:56.822Z,100.00
2019-01-26T05:27:28.170Z,100.00
2019-01-26T05:29:59.501Z,100.00
2019-01-26T05:32:30.831Z,100.00
2019-01-26T05:35:02.142Z,100.00
2019-01-26T05:37:33.431Z,100.00
2019-01-26T05:40:05.061Z,100.00
2019-01-26T05:42:36.360Z,100.00
2019-01-26T05:45:10.585Z,100.00
2019-01-26T05:47:48.096Z,100.00
2019-01-26T05:50:22.613Z,100.00
2019-01-26T05:52:54.336Z,100.00
2019-01-26T05:55:25.770Z,100.00
2019-01-26T05:57:57.169Z,100.00
2019-01-26T06:00:36.685Z,100.00
2019-01-26T06:03:08.089Z,100.00
2019-01-26T06:05:39.368Z,100.00
2019-01-26T06:08:10.791Z,100.00
2019-01-26T06:10:42.214Z,100.00
2019-01-26T06:13:13.567Z,100.00
2019-01-26T06:15:44.908Z,100.00
2019-01-26T06:18:17.093Z,100.00
2019-01-26T06:20:48.540Z,100.00
2019-01-26T06:23:19.779Z,100.00
2019-01-26T06:25:51.152Z,100.00
2019-01-26T06:28:22.371Z,100.00
2019-01-26T06:30:53.709Z,100.00
2019-01-26T06:33:25.053Z,100.00
2019-01-26T06:35:56.318Z,100.00
2019-01-26T06:38:27.574Z,100.00
2019-01-26T06:40:58.794Z,100.00
2019-01-26T06:43:30.132Z,100.00
2019-01-26T06:46:01.327Z,100.00
2019-01-26T06:48:32.604Z,100.00
2019-01-26T06:51:03.918Z,100.00
2019-01-26T06:53:35.191Z,100.00
2019-01-26T06:56:06.667Z,100.00
2019-01-26T06:58:37.985Z,100.00
2019-01-26T07:01:09.255Z,100.00
2019-01-26T07:03:40.577Z,100.00
2019-01-26T07:06:22.232Z,100.00
2019-01-26T07:08:53.523Z,100.00
2019-01-26T07:11:25.077Z,100.00
2019-01-26T07:13:57.919Z,100.00
2019-01-26T07:16:29.266Z,100.00
2019-01-26T07:19:00.615Z,100.00
2019-01-26T07:21:31.994Z,100.00
2019-01-26T07:24:03.261Z,100.00
2019-01-26T07:26:41.994Z,100.00
2019-01-26T07:29:14.306Z,100.00
2019-01-26T07:31:45.731Z,100.00
2019-01-26T07:34:17.112Z,100.00
2019-01-26T07:36:48.331Z,100.00
2019-01-26T07:39:20.167Z,100.00
2019-01-26T07:41:52.002Z,100.00
2019-01-26T07:44:23.392Z,100.00
2019-01-26T07:46:54.747Z,100.00
2019-01-26T07:49:26.072Z,100.00
2019-01-26T07:51:57.397Z,100.00
2019-01-26T07:54:28.562Z,100.00
2019-01-26T07:57:01.013Z,100.00
2019-01-26T07:59:32.359Z,100.00
2019-01-26T08:02:03.709Z,100.00
2019-01-26T08:04:35.145Z,100.00
2019-01-26T08:07:16.238Z,100.00
2019-01-26T08:09:47.543Z,100.00
2019-01-26T08:12:18.823Z,100.00
2019-01-26T08:14:50.088Z,100.00
2019-01-26T08:17:21.326Z,100.00
2019-01-26T08:19:52.515Z,100.00
2019-01-26T08:22:23.864Z,100.00
2019-01-26T08:24:56.967Z,100.00
2019-01-26T08:27:28.302Z,100.00
2019-01-26T08:29:59.619Z,100.00
2019-01-26T08:32:30.909Z,100.00
2019-01-26T08:35:02.243Z,100.00
2019-01-26T08:37:33.541Z,100.00
2019-01-26T08:40:05.224Z,100.00
2019-01-26T08:42:36.598Z,100.00
2019-01-26T08:45:11.214Z,100.00
2019-01-26T08:47:45.312Z,100.00
2019-01-26T08:50:26.329Z,100.00
2019-01-26T08:53:02.178Z,100.00
2019-01-26T08:55:37.696Z,100.00
2019-01-26T08:58:09.119Z,100.00
2019-01-26T09:00:40.390Z,100.00
2019-01-26T09:03:42.807Z,100.00
2019-01-26T09:06:39.026Z,100.00
2019-01-26T09:09:15.267Z,100.00
2019-01-26T09:11:46.856Z,100.00
2019-01-26T09:14:18.117Z,100.00
2019-01-26T09:16:49.379Z,100.00
2019-01-26T09:19:20.757Z,100.00
2019-01-26T09:21:52.182Z,100.00
2019-01-26T09:24:23.493Z,100.00
2019-01-26T09:26:54.797Z,100.00
2019-01-26T09:29:26.133Z,100.00
2019-01-26T09:31:57.377Z,100.00
2019-01-26T09:34:28.874Z,100.00
2019-01-26T09:37:00.247Z,100.00
2019-01-26T09:39:31.549Z,100.00
2019-01-26T09:42:02.983Z,100.00
2019-01-26T09:44:34.229Z,100.00
2019-01-26T09:47:05.595Z,100.00
2019-01-26T09:49:36.975Z,100.00
2019-01-26T09:52:26.890Z,100.00
2019-01-26T09:54:58.273Z,100.00
2019-01-26T09:57:30.204Z,100.00
2019-01-26T10:00:01.553Z,100.00
2019-01-26T10:02:32.802Z,100.00
2019-01-26T10:05:04.204Z,100.00
2019-01-26T10:07:35.541Z,100.00
2019-01-26T10:10:07.749Z,100.00
2019-01-26T10:12:39.150Z,100.00
2019-01-26T10:15:13.701Z,100.00
2019-01-26T10:17:46.186Z,100.00
2019-01-26T10:20:27.101Z,100.00
2019-01-26T10:22:58.543Z,100.00
2019-01-26T10:25:29.681Z,100.00
2019-01-26T10:28:01.281Z,100.00
2019-01-26T10:30:39.767Z,100.00
2019-01-26T10:33:11.268Z,100.00
2019-01-26T10:36:16.831Z,100.00
2019-01-26T10:39:08.542Z,100.00
2019-01-26T10:41:46.178Z,100.00
2019-01-26T10:44:32.457Z,100.00
2019-01-26T10:47:03.826Z,100.00
2019-01-26T10:49:35.216Z,100.00
2019-01-26T10:52:06.892Z,100.00
2019-01-26T10:54:38.246Z,100.00
2019-01-26T10:57:09.806Z,100.00
2019-01-26T10:59:41.161Z,100.00
2019-01-26T11:02:12.700Z,100.00
2019-01-26T11:04:44.057Z,100.00
2019-01-26T11:07:15.892Z,100.00
2019-01-26T11:09:47.117Z,100.00
2019-01-26T11:12:20.001Z,100.00
2019-01-26T11:14:51.386Z,100.00
2019-01-26T11:17:22.781Z,100.00
2019-01-26T11:19:54.241Z,100.00
2019-01-26T11:22:25.433Z,100.00
2019-01-26T11:24:56.826Z,100.00
2019-01-26T11:27:28.256Z,100.00
2019-01-26T11:30:00.870Z,100.00
2019-01-26T11:32:32.200Z,100.00
2019-01-26T11:35:03.671Z,100.00
2019-01-26T11:37:34.919Z,100.00
2019-01-26T11:40:17.246Z,100.00
2019-01-26T11:42:48.636Z,100.00
2019-01-26T11:45:30.553Z,100.00
2019-01-26T11:48:03.087Z,100.00
2019-01-26T11:50:39.945Z,100.00
2019-01-26T11:53:11.334Z,100.00
2019-01-26T11:56:01.429Z,100.00
2019-01-26T11:58:32.814Z,100.00
2019-01-26T12:01:21.634Z,100.00
2019-01-26T12:04:01.455Z,100.00
2019-01-26T12:06:39.331Z,100.00
2019-01-26T12:09:12.991Z,100.00
2019-01-26T12:11:44.477Z,100.00
2019-01-26T12:14:18.167Z,100.00
2019-01-26T12:16:49.476Z,99.53
2019-01-26T12:19:22.481Z,99.36
2019-01-26T12:21:54.030Z,99.98
2019-01-26T12:27:23.098Z,99.43
2019-01-26T12:29:55.075Z,98.94
2019-01-26T12:32:26.723Z,98.72
2019-01-26T12:34:57.965Z,98.56
2019-01-26T12:37:29.243Z,99.12
2019-01-26T12:40:00.655Z,99.06
2019-01-26T12:42:32.452Z,98.88
2019-01-26T12:45:22.685Z,98.24
2019-01-26T12:47:54.179Z,97.97
2019-01-26T12:50:25.626Z,98.09
2019-01-26T12:52:56.987Z,97.60
2019-01-26T12:55:28.949Z,96.87
2019-01-26T12:58:06.728Z,96.24
2019-01-26T13:00:38.151Z,94.94
2019-01-26T13:03:09.488Z,94.63
2019-01-26T13:05:43.662Z,94.14
2019-01-26T13:08:15.326Z,94.05
2019-01-26T13:10:59.658Z,93.86
2019-01-26T13:13:31.159Z,93.79
2019-01-26T13:16:02.472Z,93.98
2019-01-26T13:18:34.154Z,94.22
2019-01-26T13:21:11.861Z,94.47
2019-01-26T13:23:43.519Z,93.72
2019-01-26T13:26:14.907Z,93.95
2019-01-26T13:28:46.300Z,93.86
2019-01-26T13:31:18.843Z,93.42
2019-01-26T13:33:50.242Z,93.38
2019-01-26T13:36:24.210Z,93.40
